Time;durP1;ratioP1;P1;durP2;ratioP2;P2;SDS_P1;SDS_P2;PMS_P1;PMS_P2;Temp;Humidity;BMP_temperature;BMP_pressure;BME280_temperature;BME280_humidity;BME280_pressure;Samples;Min_cycle;Max_cycle;Signal;HPM_P1;HPM_P2
2023/03/01 00:01:37;;;;;;;7.63;3.15;;;;;;;6.27;78.63;94368.81;5105617;28;20028;-81
2023/03/01 00:04:02;;;;;;;6.68;3.65;;;;;;;6.23;79.07;94355.34;5105185;28;20384;-81
2023/03/01 00:06:28;;;;;;;5.75;3.10;;;;;;;6.22;78.68;94354.53;5105418;28;20035;-81
2023/03/01 00:08:54;;;;;;;7.07;3.85;;;;;;;6.21;78.84;94360.13;5105278;28;20241;-81
2023/03/01 00:11:22;;;;;;;5.70;3.40;;;;;;;6.19;78.93;94362.25;5104057;28;20030;-82
2023/03/01 00:13:50;;;;;;;5.05;3.10;;;;;;;6.10;79.02;94350.63;5105304;28;20087;-82
2023/03/01 00:16:22;;;;;;;6.57;3.80;;;;;;;6.01;79.04;94359.13;5105230;28;20152;-82
2023/03/01 00:18:48;;;;;;;7.18;3.70;;;;;;;5.97;79.51;94352.03;5104010;28;20031;-82
2023/03/01 00:21:14;;;;;;;6.05;3.42;;;;;;;5.96;79.71;94347.78;5105232;28;20095;-81
2023/03/01 00:23:40;;;;;;;5.57;3.40;;;;;;;5.90;79.60;94338.25;5104849;28;20024;-82
2023/03/01 00:26:10;;;;;;;4.75;3.15;;;;;;;5.85;80.04;94339.06;5105030;28;20044;-82
2023/03/01 00:28:36;;;;;;;4.95;3.33;;;;;;;5.81;80.08;94317.66;5104952;28;20020;-82
2023/03/01 00:31:06;;;;;;;5.90;3.50;;;;;;;5.75;80.31;94321.38;5105091;28;20034;-82
2023/03/01 00:33:32;;;;;;;7.15;3.80;;;;;;;5.74;80.49;94319.81;5104775;28;20020;-81
2023/03/01 00:36:01;;;;;;;5.75;3.42;;;;;;;5.75;80.45;94312.66;5104559;28;20026;-81
2023/03/01 00:38:26;;;;;;;6.25;3.65;;;;;;;5.72;80.76;94314.00;5103530;28;20026;-81
2023/03/01 00:40:52;;;;;;;5.22;3.65;;;;;;;5.73;80.65;94314.78;5104791;28;20275;-80
2023/03/01 00:43:18;;;;;;;4.78;3.45;;;;;;;5.72;80.75;94321.94;5104692;28;20020;-80
2023/03/01 00:45:43;;;;;;;5.53;3.13;;;;;;;5.72;80.72;94314.00;5104283;28;20031;-81
2023/03/01 00:48:09;;;;;;;4.40;3.15;;;;;;;5.70;80.72;94316.13;5104783;28;20024;-80
2023/03/01 00:50:34;;;;;;;7.63;2.70;;;;;;;5.66;80.81;94311.63;5104265;28;20019;-80
2023/03/01 00:52:59;;;;;;;4.53;3.20;;;;;;;5.66;81.15;94316.91;5104347;28;20024;-80
2023/03/01 00:55:25;;;;;;;4.63;2.92;;;;;;;5.63;81.10;94305.03;5104407;28;20015;-80
2023/03/01 00:57:51;;;;;;;4.55;2.90;;;;;;;5.62;81.13;94311.41;5104164;28;20035;-80
2023/03/01 01:00:17;;;;;;;7.10;3.10;;;;;;;5.61;81.21;94312.44;5104375;28;20051;-79
2023/03/01 01:02:43;;;;;;;4.03;2.25;;;;;;;5.55;81.36;94314.31;5104176;28;20378;-80
2023/03/01 01:05:08;;;;;;;4.13;2.47;;;;;;;5.58;81.44;94308.50;5104147;28;20070;-80
2023/03/01 01:07:34;;;;;;;5.03;2.60;;;;;;;5.60;81.34;94305.59;5104077;28;20031;-80
2023/03/01 01:09:59;;;;;;;6.28;3.13;;;;;;;5.55;81.08;94303.75;5104104;28;20103;-80
2023/03/01 01:12:25;;;;;;;7.38;2.70;;;;;;;5.55;81.09;94305.59;5103853;28;20024;-80
2023/03/01 01:14:50;;;;;;;4.95;2.78;;;;;;;5.55;80.87;94301.09;5104067;28;20356;-80
2023/03/01 01:17:15;;;;;;;5.45;2.17;;;;;;;5.59;80.95;94298.72;5104062;28;20106;-80
2023/03/01 01:19:41;;;;;;;2.83;1.70;;;;;;;5.62;80.24;94296.31;5104066;28;20382;-79
2023/03/01 01:22:06;;;;;;;5.32;2.03;;;;;;;5.63;79.80;94305.03;5103523;28;20099;-80
2023/03/01 01:24:32;;;;;;;3.40;1.88;;;;;;;5.63;79.80;94312.97;5103699;28;20051;-80
2023/03/01 01:26:57;;;;;;;2.97;1.85;;;;;;;5.66;79.66;94309.81;5103768;28;20223;-80
2023/03/01 01:29:22;;;;;;;2.80;1.77;;;;;;;5.66;79.24;94315.09;5103716;28;20020;-79
2023/03/01 01:31:48;;;;;;;3.05;1.75;;;;;;;5.66;79.12;94309.81;5103668;28;20027;-80
2023/03/01 01:34:19;;;;;;;3.35;1.98;;;;;;;5.68;79.19;94312.16;5103754;28;20094;-80
2023/03/01 01:36:49;;;;;;;3.53;2.05;;;;;;;5.70;79.15;94316.13;5103539;28;20024;-82
2023/03/01 01:39:15;;;;;;;5.05;2.40;;;;;;;5.70;79.06;94313.50;5103624;28;20041;-81
2023/03/01 01:41:44;;;;;;;3.63;2.17;;;;;;;5.69;78.91;94325.13;5103787;28;20219;-81
2023/03/01 01:44:17;;;;;;;2.35;1.60;;;;;;;5.72;79.02;94329.88;5103626;28;20023;-81
2023/03/01 01:46:58;;;;;;;3.80;1.77;;;;;;;5.77;78.77;94332.47;5103291;28;20047;-80
2023/03/01 01:49:45;;;;;;;3.05;1.80;;;;;;;5.77;78.49;94324.56;5103317;28;20018;-81
2023/03/01 01:52:16;;;;;;;2.45;1.67;;;;;;;5.73;78.00;94328.81;5103541;28;20027;-81
2023/03/01 01:55:10;;;;;;;3.22;1.88;;;;;;;5.71;77.82;94323.00;5103548;28;20091;-81
2023/03/01 01:57:41;;;;;;;2.40;1.60;;;;;;;5.68;77.82;94320.09;5099399;28;20040;-81
2023/03/01 02:00:14;;;;;;;2.67;1.52;;;;;;;5.71;77.84;94317.69;5102045;28;20204;-81
2023/03/01 02:02:42;;;;;;;2.50;1.65;;;;;;;5.70;77.69;94321.41;5103581;28;20024;-81
2023/03/01 02:05:16;;;;;;;2.17;1.60;;;;;;;5.76;77.74;94315.03;5103145;28;20028;-81
2023/03/01 02:07:43;;;;;;;5.30;1.58;;;;;;;5.79;77.50;94319.78;5103349;28;20226;-81
2023/03/01 02:10:09;;;;;;;3.38;1.35;;;;;;;5.79;77.62;94301.25;5103383;28;20023;-81
2023/03/01 02:12:36;;;;;;;2.80;1.33;;;;;;;5.81;77.19;94307.06;5103149;28;20030;-81
2023/03/01 02:15:02;;;;;;;2.17;1.30;;;;;;;5.77;77.18;94308.69;5103061;28;20319;-81
2023/03/01 02:17:27;;;;;;;1.65;1.20;;;;;;;5.77;76.98;94299.97;5102930;28;20043;-81
2023/03/01 02:20:02;;;;;;;1.92;1.13;;;;;;;5.83;76.88;94304.16;5103084;28;20020;-81
2023/03/01 02:22:30;;;;;;;2.88;1.60;;;;;;;5.74;76.80;94314.53;5103028;28;20169;-81
2023/03/01 02:25:02;;;;;;;2.40;1.40;;;;;;;5.72;76.77;94299.97;5102948;28;20054;-81
2023/03/01 02:27:36;;;;;;;2.88;1.48;;;;;;;5.66;77.04;94307.16;5101855;28;20314;-81
2023/03/01 02:30:02;;;;;;;2.08;1.42;;;;;;;5.69;77.06;94311.88;5102746;28;20040;-82
2023/03/01 02:32:28;;;;;;;2.20;1.20;;;;;;;5.70;76.88;94310.84;5102965;28;20024;-82
2023/03/01 02:34:55;;;;;;;2.40;1.50;;;;;;;5.71;76.83;94315.06;5105010;28;20412;-82
2023/03/01 02:37:24;;;;;;;2.35;1.48;;;;;;;5.67;77.00;94315.88;5107146;28;20333;-82
2023/03/01 02:39:57;;;;;;;2.20;1.40;;;;;;;5.64;77.26;94322.50;5105854;28;20021;-82
2023/03/01 02:42:26;;;;;;;2.67;1.73;;;;;;;5.61;77.39;94310.59;5107159;28;20232;-82
2023/03/01 02:44:52;;;;;;;2.55;1.60;;;;;;;5.62;77.27;94312.19;5106951;28;20031;-81
2023/03/01 02:47:17;;;;;;;2.97;1.77;;;;;;;5.57;77.41;94306.13;5106830;28;20241;-81
2023/03/01 02:49:42;;;;;;;2.95;1.80;;;;;;;5.61;77.71;94313.22;5107109;28;20054;-82
2023/03/01 02:52:33;;;;;;;2.53;1.60;;;;;;;5.57;77.42;94308.75;5106929;28;20027;-82
2023/03/01 02:55:10;;;;;;;4.05;2.10;;;;;;;5.57;77.85;94303.47;5106886;28;20245;-82
2023/03/01 02:57:39;;;;;;;2.47;1.58;;;;;;;5.49;77.81;94314.59;5107013;28;20047;-82
2023/03/01 03:00:08;;;;;;;3.13;2.28;;;;;;;5.49;78.23;94312.75;5106505;28;20031;-82
2023/03/01 03:02:37;;;;;;;4.60;2.15;;;;;;;5.44;78.78;94304.84;5106776;28;20270;-81
2023/03/01 03:05:09;;;;;;;3.35;2.30;;;;;;;5.44;78.83;94312.78;5106459;28;20216;-81
2023/03/01 03:07:37;;;;;;;3.75;2.30;;;;;;;5.46;78.81;94313.31;5106498;28;20023;-81
2023/03/01 03:10:04;;;;;;;4.40;2.63;;;;;;;5.48;79.15;94308.53;5106389;28;20038;-81
2023/03/01 03:12:30;;;;;;;3.88;3.00;;;;;;;5.49;79.09;94309.31;5106319;28;20369;-82
2023/03/01 03:14:55;;;;;;;4.18;2.78;;;;;;;5.48;78.89;94302.47;5106310;28;20019;-81
2023/03/01 03:17:21;;;;;;;4.80;2.95;;;;;;;5.49;78.91;94304.03;5106321;28;20429;-82
2023/03/01 03:19:46;;;;;;;4.25;3.28;;;;;;;5.47;79.03;94314.88;5106287;28;20031;-81
2023/03/01 03:22:12;;;;;;;5.95;3.45;;;;;;;5.45;79.33;94313.56;5106213;28;20023;-81
2023/03/01 03:24:37;;;;;;;4.18;3.10;;;;;;;5.48;79.22;94318.31;5106418;28;20057;-81
2023/03/01 03:27:06;;;;;;;5.63;3.50;;;;;;;5.53;79.08;94310.38;5106152;28;20095;-81
2023/03/01 03:29:33;;;;;;;4.45;3.10;;;;;;;5.54;78.96;94301.38;5106176;28;20481;-81
2023/03/01 03:31:58;;;;;;;4.85;2.95;;;;;;;5.53;78.81;94311.16;5105957;28;20039;-82
2023/03/01 03:34:24;;;;;;;5.22;3.35;;;;;;;5.51;78.76;94299.25;5105912;28;20023;-82
2023/03/01 03:36:59;;;;;;;4.75;2.92;;;;;;;5.50;78.71;94311.69;5105934;28;20023;-82
2023/03/01 03:39:25;;;;;;;5.03;3.40;;;;;;;5.53;78.81;94300.56;5106035;28;20222;-81
2023/03/01 03:41:51;;;;;;;7.88;3.63;;;;;;;5.55;78.77;94303.75;5105869;28;20019;-82
2023/03/01 03:44:16;;;;;;;5.47;3.30;;;;;;;5.50;78.66;94310.91;5105611;28;20062;-82
2023/03/01 03:46:41;;;;;;;5.93;3.67;;;;;;;5.53;78.71;94310.38;5105743;28;20067;-82
2023/03/01 03:49:07;;;;;;;5.90;3.42;;;;;;;5.55;78.68;94311.66;5106045;28;20222;-81
2023/03/01 03:51:32;;;;;;;10.18;3.35;;;;;;;5.62;78.49;94312.19;5105701;28;20271;-80
2023/03/01 03:53:58;;;;;;;6.15;3.33;;;;;;;5.68;78.05;94312.97;5105613;28;20073;-80
2023/03/01 03:56:43;;;;;;;5.63;2.78;;;;;;;5.70;77.82;94318.78;5105498;28;20092;-79
2023/03/01 03:59:11;;;;;;;5.97;3.08;;;;;;;5.70;77.72;94320.59;5105792;28;20191;-80
2023/03/01 04:02:21;;;;;;;4.28;2.70;;;;;;;5.66;77.60;94314.28;5105478;28;20020;-79
2023/03/01 04:04:50;;;;;;;4.25;2.63;;;;;;;5.62;77.84;94308.75;5105302;28;20032;-79
2023/03/01 04:07:16;;;;;;;5.55;2.65;;;;;;;5.66;77.74;94315.09;5105359;28;20024;-80
2023/03/01 04:09:43;;;;;;;4.93;3.17;;;;;;;5.65;77.64;94318.78;5105570;28;20309;-80
2023/03/01 04:12:09;;;;;;;6.85;2.20;;;;;;;5.61;77.84;94312.44;5105261;28;20027;-80
2023/03/01 04:14:34;;;;;;;3.40;2.00;;;;;;;5.64;77.42;94317.22;5105311;28;20066;-80
2023/03/01 04:17:00;;;;;;;4.22;2.25;;;;;;;5.62;77.13;94308.75;5105213;28;20024;-80
2023/03/01 04:19:26;;;;;;;4.65;2.55;;;;;;;5.64;77.56;94317.22;5105198;28;20298;-80
2023/03/01 04:21:52;;;;;;;9.43;2.85;;;;;;;5.61;77.86;94323.03;5105075;28;20077;-80
2023/03/01 04:24:17;;;;;;;5.25;2.83;;;;;;;5.65;77.51;94318.78;5104905;28;20294;-80
2023/03/01 04:26:43;;;;;;;5.75;2.85;;;;;;;5.70;77.59;94318.78;5105133;28;20035;-80
2023/03/01 04:29:08;;;;;;;4.15;2.63;;;;;;;5.71;77.46;94327.50;5105073;28;20042;-80
2023/03/01 04:31:34;;;;;;;6.65;3.47;;;;;;;5.70;77.71;94326.72;5104907;28;20091;-80
2023/03/01 04:33:59;;;;;;;4.05;2.92;;;;;;;5.70;77.27;94329.34;5104962;28;20141;-80
2023/03/01 04:36:28;;;;;;;5.75;3.50;;;;;;;5.65;77.74;94326.72;5104831;28;20055;-81
2023/03/01 04:38:54;;;;;;;6.05;2.70;;;;;;;5.57;77.96;94314.06;5104660;28;20322;-81
2023/03/01 04:41:22;;;;;;;4.70;2.90;;;;;;;5.54;78.36;94323.31;5104804;28;20020;-81
2023/03/01 04:43:48;;;;;;;7.65;3.40;;;;;;;5.58;78.26;94315.66;5104631;28;20024;-81
2023/03/01 04:46:16;;;;;;;5.90;3.15;;;;;;;5.57;78.03;94327.28;5103360;28;20032;-81
2023/03/01 04:48:44;;;;;;;4.97;2.97;;;;;;;5.49;78.28;94323.31;5104663;28;20050;-81
2023/03/01 04:51:13;;;;;;;5.70;3.45;;;;;;;5.51;78.34;94315.91;5104615;28;20020;-81
2023/03/01 04:53:39;;;;;;;7.07;3.72;;;;;;;5.47;78.60;94314.88;5104718;28;20088;-81
2023/03/01 04:56:06;;;;;;;5.82;3.92;;;;;;;5.43;78.81;94298.78;5104496;28;20230;-80
2023/03/01 04:58:31;;;;;;;6.32;3.67;;;;;;;5.39;78.75;94310.13;5103682;28;20028;-80
2023/03/01 05:00:57;;;;;;;6.13;4.03;;;;;;;5.34;79.17;94305.66;5104173;28;20222;-80
2023/03/01 05:03:22;;;;;;;6.75;3.78;;;;;;;5.40;79.24;94301.94;5104440;28;20035;-80
2023/03/01 05:05:50;;;;;;;6.30;3.67;;;;;;;5.43;79.01;94306.72;5104217;28;20261;-80
2023/03/01 05:08:20;;;;;;;6.35;3.85;;;;;;;5.46;78.95;94305.38;5104221;28;20036;-79
2023/03/01 05:10:49;;;;;;;6.40;4.07;;;;;;;5.45;78.65;94308.28;5104087;28;20031;-79
2023/03/01 05:13:20;;;;;;;9.60;4.22;;;;;;;5.41;78.68;94308.84;5103778;28;20024;-80
2023/03/01 05:15:56;;;;;;;4.70;3.13;;;;;;;5.35;78.75;94309.91;5103961;28;20062;-79
2023/03/01 05:18:25;;;;;;;6.70;2.53;;;;;;;5.36;78.86;94303.53;5104078;28;20020;-79
2023/03/01 05:20:52;;;;;;;8.40;3.13;;;;;;;5.36;79.00;94306.19;5103815;28;20024;-78
2023/03/01 05:23:18;;;;;;;5.82;3.40;;;;;;;5.33;79.10;94311.22;5103994;28;20232;-78
2023/03/01 05:25:44;;;;;;;6.57;3.20;;;;;;;5.32;79.23;94307.00;5103656;28;20024;-78
2023/03/01 05:28:12;;;;;;;4.30;2.28;;;;;;;5.33;79.01;94314.66;5104106;28;20306;-78
2023/03/01 05:30:38;;;;;;;6.57;2.60;;;;;;;5.36;79.00;94308.84;5103895;28;20091;-78
2023/03/01 05:33:05;;;;;;;13.38;4.10;;;;;;;5.38;78.36;94313.84;5103665;28;20024;-80
2023/03/01 05:35:32;;;;;;;7.40;3.25;;;;;;;5.45;77.92;94308.28;5102375;28;20020;-79
2023/03/01 05:37:58;;;;;;;7.38;3.10;;;;;;;5.48;77.81;94305.91;5103583;28;20024;-80
2023/03/01 05:40:24;;;;;;;6.13;3.08;;;;;;;5.53;77.84;94307.72;5103609;28;20100;-80
2023/03/01 05:42:54;;;;;;;8.98;4.00;;;;;;;5.60;76.95;94311.66;5103587;28;20019;-80
2023/03/01 05:45:21;;;;;;;8.57;3.08;;;;;;;5.60;76.60;94306.38;5103487;28;20034;-81
2023/03/01 05:47:48;;;;;;;9.05;2.60;;;;;;;5.65;76.68;94302.13;5103259;28;20055;-80
2023/03/01 05:50:20;;;;;;;5.88;2.80;;;;;;;5.67;76.21;94314.00;5103548;28;20034;-80
2023/03/01 05:52:48;;;;;;;5.77;2.30;;;;;;;5.70;75.82;94304.75;5103362;28;20016;-80
2023/03/01 05:55:14;;;;;;;5.85;3.67;;;;;;;5.74;75.51;94317.16;5103475;28;20254;-80
2023/03/01 05:57:40;;;;;;;7.50;2.95;;;;;;;5.83;75.55;94326.09;5103504;28;20074;-80
2023/03/01 06:00:08;;;;;;;9.27;3.25;;;;;;;5.90;74.89;94327.66;5103410;28;20019;-80
2023/03/01 06:02:34;;;;;;;5.93;3.08;;;;;;;5.93;74.75;94329.78;5103225;28;20020;-81
2023/03/01 06:04:59;;;;;;;4.80;2.67;;;;;;;5.97;74.50;94333.50;5103096;28;20105;-81
2023/03/01 06:07:24;;;;;;;6.97;2.22;;;;;;;6.05;74.05;94330.28;5103214;28;20023;-82
2023/03/01 06:09:50;;;;;;;5.20;2.78;;;;;;;6.10;73.67;94340.03;5102160;28;20020;-82
2023/03/01 06:12:15;;;;;;;5.38;2.13;;;;;;;6.11;73.63;94341.66;5103042;28;20165;-82
2023/03/01 06:14:41;;;;;;;5.60;2.15;;;;;;;6.16;73.44;94350.31;5103223;28;20016;-82
2023/03/01 06:17:06;;;;;;;4.45;2.15;;;;;;;6.21;73.27;94352.97;5103167;28;20083;-83
2023/03/01 06:19:32;;;;;;;12.00;1.85;;;;;;;6.21;72.98;94352.97;5103077;28;20352;-82
2023/03/01 06:21:57;;;;;;;12.93;2.30;;;;;;;6.29;72.69;94342.84;5102996;28;20020;-81
2023/03/01 06:24:22;;;;;;;3.40;2.20;;;;;;;6.26;72.74;94351.34;5102933;28;20040;-81
2023/03/01 06:26:48;;;;;;;10.25;2.55;;;;;;;6.28;72.65;94349.22;5103014;28;20226;-81
2023/03/01 06:29:14;;;;;;;6.13;2.35;;;;;;;6.29;72.76;94353.44;5102921;28;20091;-82
2023/03/01 06:31:40;;;;;;;3.92;2.60;;;;;;;6.35;72.40;94347.03;5103043;28;20024;-82
2023/03/01 06:34:05;;;;;;;4.45;1.90;;;;;;;6.42;72.42;94352.84;5102981;28;20196;-80
2023/03/01 06:36:31;;;;;;;5.30;1.92;;;;;;;6.44;71.89;94356.00;5102648;28;20024;-81
2023/03/01 06:38:56;;;;;;;4.32;1.80;;;;;;;6.47;71.80;94354.66;5102726;28;20062;-81
2023/03/01 06:41:21;;;;;;;6.45;1.75;;;;;;;6.45;71.71;94356.78;5101624;28;20016;-81
2023/03/01 06:43:47;;;;;;;9.35;2.58;;;;;;;6.46;71.32;94347.78;5102801;28;20319;-81
2023/03/01 06:46:12;;;;;;;8.98;2.10;;;;;;;6.46;71.21;94356.53;5102722;28;20036;-80
2023/03/01 06:48:38;;;;;;;3.17;1.92;;;;;;;6.49;71.43;94350.66;5102754;28;20016;-80
2023/03/01 06:51:03;;;;;;;7.07;1.88;;;;;;;6.49;71.35;94353.31;5102809;28;20020;-80
2023/03/01 06:53:29;;;;;;;9.95;1.90;;;;;;;6.50;70.92;94346.97;5102833;28;20012;-79
2023/03/01 06:55:56;;;;;;;4.85;1.40;;;;;;;6.55;70.43;94348.78;5102725;28;20327;-84
2023/03/01 06:58:22;;;;;;;2.42;1.27;;;;;;;6.55;70.26;94348.78;5102667;28;20039;-81
2023/03/01 07:00:47;;;;;;;3.75;1.60;;;;;;;6.59;72.98;94347.97;5102757;28;20368;-80
2023/03/01 07:03:13;;;;;;;11.70;2.30;;;;;;;6.69;75.16;94348.94;5102715;28;20235;-76
2023/03/01 07:05:38;;;;;;;12.23;3.08;;;;;;;6.80;75.02;94353.91;5102340;28;20214;-81
2023/03/01 07:08:04;;;;;;;7.60;2.53;;;;;;;6.94;73.17;94359.38;5103028;28;20020;-77
2023/03/01 07:10:30;;;;;;;3.72;1.60;;;;;;;7.00;70.02;94352.97;5102608;28;20027;-77
2023/03/01 07:12:57;;;;;;;13.73;1.50;;;;;;;7.04;69.13;94347.88;5102611;28;20020;-78
2023/03/01 07:15:22;;;;;;;3.97;1.63;;;;;;;7.11;68.80;94350.22;5102346;28;20020;-78
2023/03/01 07:17:50;;;;;;;3.25;1.40;;;;;;;7.19;68.55;94352.28;5102698;28;20019;-77
2023/03/01 07:20:17;;;;;;;9.25;1.83;;;;;;;7.28;68.10;94355.88;5103549;28;20028;-78
2023/03/01 07:22:42;;;;;;;12.05;2.00;;;;;;;7.30;67.93;94343.13;5106431;28;20036;-78
2023/03/01 07:25:09;;;;;;;13.82;1.80;;;;;;;7.36;67.79;94344.66;5106308;28;20379;-79
2023/03/01 07:27:34;;;;;;;9.73;1.88;;;;;;;7.42;67.20;94342.75;5106203;28;20065;-80
2023/03/01 07:30:00;;;;;;;3.22;1.40;;;;;;;7.39;67.17;94341.47;5106423;28;20020;-82
2023/03/01 07:32:25;;;;;;;8.48;1.73;;;;;;;7.41;67.33;94346.50;5106286;28;20038;-81
2023/03/01 07:34:51;;;;;;;12.13;2.15;;;;;;;7.44;67.21;94338.75;5106083;28;20367;-80
2023/03/01 07:37:17;;;;;;;6.22;2.15;;;;;;;7.49;66.91;94335.28;5105068;28;20023;-80
2023/03/01 07:39:42;;;;;;;11.10;2.42;;;;;;;7.53;67.21;94335.47;5106272;28;20301;-80
2023/03/01 07:42:08;;;;;;;7.32;2.20;;;;;;;7.59;66.68;94337.00;5107619;28;20270;-81
2023/03/01 07:44:36;;;;;;;5.70;2.10;;;;;;;7.58;66.48;94332.78;5105105;28;20020;-82
2023/03/01 07:47:03;;;;;;;5.18;1.75;;;;;;;7.67;65.99;94338.25;5103611;28;20040;-80
2023/03/01 07:49:29;;;;;;;7.72;3.10;;;;;;;7.70;65.47;94333.19;5105591;28;20016;-80
2023/03/01 07:51:54;;;;;;;9.32;2.40;;;;;;;7.75;65.37;94335.75;5103765;28;20046;-81
2023/03/01 07:54:20;;;;;;;2.78;1.63;;;;;;;7.75;64.90;94329.66;5103667;28;20062;-81
2023/03/01 07:56:46;;;;;;;4.72;1.90;;;;;;;7.74;64.91;94323.56;5103812;28;20023;-80
2023/03/01 07:59:12;;;;;;;6.72;2.30;;;;;;;7.76;64.80;94331.25;5103711;28;20024;-81
2023/03/01 08:01:37;;;;;;;5.65;2.10;;;;;;;7.79;64.76;94331.47;5103810;28;20207;-81
2023/03/01 08:04:06;;;;;;;4.63;1.50;;;;;;;7.92;64.91;94323.91;5102543;28;20012;-81
2023/03/01 08:06:34;;;;;;;3.92;1.70;;;;;;;7.93;64.02;94315.66;5104419;28;20369;-81
2023/03/01 08:08:59;;;;;;;6.40;2.47;;;;;;;7.94;64.74;94319.91;5105389;28;20306;-81
2023/03/01 08:11:25;;;;;;;3.25;1.90;;;;;;;7.97;64.26;94319.31;5105465;28;20039;-81
2023/03/01 08:13:50;;;;;;;6.35;2.58;;;;;;;7.88;64.18;94323.69;5104608;28;20146;-81
2023/03/01 08:16:16;;;;;;;11.02;2.53;;;;;;;7.85;64.41;94321.59;5105468;28;20099;-81
2023/03/01 08:18:43;;;;;;;4.68;2.13;;;;;;;7.83;64.44;94319.22;5105141;28;20016;-81
2023/03/01 08:21:11;;;;;;;5.07;2.28;;;;;;;7.88;64.48;94323.69;5105493;28;20016;-81
2023/03/01 08:23:37;;;;;;;6.03;2.50;;;;;;;7.92;64.12;94326.56;5105122;28;20203;-81
2023/03/01 08:26:21;;;;;;;6.35;2.80;;;;;;;7.93;64.29;94325.47;5105304;28;20039;-82
2023/03/01 08:28:48;;;;;;;3.50;2.13;;;;;;;7.91;64.05;94319.66;5105020;28;20016;-82
2023/03/01 08:31:21;;;;;;;6.70;2.03;;;;;;;7.88;64.18;94328.22;5104582;28;20318;-82
2023/03/01 08:33:50;;;;;;;8.18;2.08;;;;;;;7.82;64.37;94325.59;5104279;28;20315;-82
2023/03/01 08:36:16;;;;;;;8.40;3.25;;;;;;;7.80;64.21;94319.78;5104921;28;20094;-82
2023/03/01 08:38:42;;;;;;;4.35;2.60;;;;;;;7.81;64.43;94316.03;5105079;28;20326;-82
2023/03/01 08:41:08;;;;;;;6.15;3.03;;;;;;;7.82;64.46;94314.22;5105020;28;20028;-81
2023/03/01 08:43:33;;;;;;;6.10;2.78;;;;;;;7.88;64.58;94321.03;5104731;28;20024;-82
2023/03/01 08:45:58;;;;;;;5.03;2.80;;;;;;;7.95;64.38;94320.69;5104461;28;20334;-82
2023/03/01 08:48:24;;;;;;;6.13;3.22;;;;;;;7.99;64.38;94319.03;5103654;28;20028;-81
2023/03/01 08:50:50;;;;;;;14.68;3.08;;;;;;;8.11;64.31;94324.72;5104696;28;20073;-82
2023/03/01 08:53:16;;;;;;;4.60;2.00;;;;;;;8.31;63.68;94330.84;5104715;28;20047;-82
2023/03/01 08:55:41;;;;;;;7.13;2.53;;;;;;;8.51;62.79;94327.94;5104531;28;20020;-82
2023/03/01 08:58:07;;;;;;;10.70;2.35;;;;;;;8.70;61.85;94330.56;5102970;28;20028;-82
2023/03/01 09:00:34;;;;;;;3.78;2.00;;;;;;;8.74;61.09;94320.16;5104322;28;20141;-82
2023/03/01 09:03:00;;;;;;;2.50;1.52;;;;;;;8.77;61.34;94324.88;5104439;28;20027;-82
2023/03/01 09:05:25;;;;;;;4.32;2.00;;;;;;;8.84;61.18;94322.66;5104086;28;20036;-81
2023/03/01 09:07:51;;;;;;;5.03;2.03;;;;;;;8.90;61.04;94323.34;5104222;28;20196;-81
2023/03/01 09:10:17;;;;;;;7.53;2.10;;;;;;;8.81;60.74;94332.00;5102692;28;20032;-82
2023/03/01 09:12:42;;;;;;;6.38;1.73;;;;;;;8.87;60.90;94327.38;5103963;28;20160;-81
2023/03/01 09:15:08;;;;;;;4.22;2.30;;;;;;;8.98;60.92;94339.44;5104295;28;20016;-82
2023/03/01 09:17:34;;;;;;;9.13;2.40;;;;;;;9.10;60.80;94336.31;5104069;28;20016;-82
2023/03/01 09:19:59;;;;;;;5.15;2.72;;;;;;;9.16;60.13;94335.16;5104108;28;20023;-81
2023/03/01 09:22:25;;;;;;;6.20;2.42;;;;;;;9.10;60.36;94324.88;5103957;28;20030;-81
2023/03/01 09:24:51;;;;;;;8.68;3.00;;;;;;;9.12;60.70;94322.72;5103991;28;20030;-81
2023/03/01 09:27:19;;;;;;;6.35;2.00;;;;;;;9.11;60.02;94327.25;5102866;28;20034;-81
2023/03/01 09:29:45;;;;;;;13.35;2.53;;;;;;;9.19;60.41;94334.56;5104111;28;20106;-81
2023/03/01 09:32:10;;;;;;;4.28;1.83;;;;;;;9.22;59.32;94323.34;5104342;28;20310;-81
2023/03/01 09:35:00;;;;;;;6.35;1.88;;;;;;;9.09;59.77;94313.44;5103841;28;20240;-81
2023/03/01 09:37:21;;;;;;;17.80;2.35;;;;;;;9.14;60.12;94320.53;5103688;28;20229;-81
2023/03/01 09:39:47;;;;;;;5.57;2.10;;;;;;;9.17;59.96;94314.66;5103541;28;20031;-81
2023/03/01 09:42:13;;;;;;;8.25;2.58;;;;;;;9.20;60.30;94319.41;5103743;28;20059;-83
2023/03/01 09:44:55;;;;;;;8.75;3.00;;;;;;;9.29;59.74;94307.00;5103553;28;20091;-81
2023/03/01 09:47:24;;;;;;;3.60;2.22;;;;;;;9.35;59.60;94315.69;5103639;28;20074;-81
2023/03/01 09:50:13;;;;;;;8.50;2.70;;;;;;;9.42;59.31;94311.56;5103495;28;20089;-81
2023/03/01 09:53:01;;;;;;;10.82;2.97;;;;;;;9.52;59.36;94309.78;5103848;28;20035;-81
2023/03/01 09:55:34;;;;;;;6.13;2.65;;;;;;;9.62;58.84;94299.72;5103369;28;20024;-81
2023/03/01 09:58:17;;;;;;;9.25;2.55;;;;;;;9.76;58.46;94309.59;5103620;28;20247;-82
2023/03/01 10:00:44;;;;;;;4.20;2.10;;;;;;;9.85;57.55;94299.84;5102251;28;20028;-82
2023/03/01 10:03:28;;;;;;;10.07;2.47;;;;;;;9.88;58.02;94296.56;5103686;28;20039;-81
2023/03/01 10:06:12;;;;;;;5.75;2.80;;;;;;;9.89;57.87;94292.84;5103313;28;20267;-80
2023/03/01 10:08:43;;;;;;;9.63;2.28;;;;;;;9.88;57.85;94285.13;5103486;28;20034;-81
2023/03/01 10:11:22;;;;;;;6.80;2.60;;;;;;;9.90;57.54;94285.63;5103392;28;20023;-81
2023/03/01 10:14:00;;;;;;;8.30;2.85;;;;;;;9.93;57.69;94282.34;5103349;28;20024;-82
2023/03/01 10:16:43;;;;;;;8.00;3.28;;;;;;;9.95;57.99;94288.16;5103260;28;20023;-82
2023/03/01 10:19:16;;;;;;;8.75;3.40;;;;;;;10.01;57.91;94292.31;5103308;28;20254;-82
2023/03/01 10:21:45;;;;;;;6.68;2.50;;;;;;;10.11;57.56;94288.63;5103407;28;20087;-82
2023/03/01 10:24:18;;;;;;;12.00;2.38;;;;;;;10.02;57.12;94275.25;5103319;28;20024;-82
2023/03/01 10:26:56;;;;;;;4.78;2.75;;;;;;;9.97;57.60;94283.31;5103025;28;20031;-81
2023/03/01 10:29:42;;;;;;;6.13;3.30;;;;;;;9.98;58.05;94279.59;5103282;28;20020;-81
2023/03/01 10:32:10;;;;;;;7.82;3.28;;;;;;;10.10;57.75;94273.75;5103282;28;20162;-81
2023/03/01 10:34:36;;;;;;;9.70;3.03;;;;;;;10.15;57.08;94268.31;5102853;28;20016;-82
2023/03/01 10:37:21;;;;;;;8.52;3.15;;;;;;;10.19;57.69;94269.28;5102248;28;20109;-81
2023/03/01 10:40:00;;;;;;;7.40;3.15;;;;;;;10.14;57.26;94264.09;5103099;28;20020;-82
2023/03/01 10:42:29;;;;;;;8.30;4.15;;;;;;;10.09;57.52;94253.53;5102868;28;20031;-82
2023/03/01 10:44:58;;;;;;;5.32;2.92;;;;;;;10.02;57.25;94256.59;5102943;28;20035;-82
2023/03/01 10:47:26;;;;;;;8.68;3.10;;;;;;;9.99;57.36;94255.34;5102835;28;20040;-82
2023/03/01 10:50:00;;;;;;;7.07;3.75;;;;;;;9.93;57.94;94261.06;5102898;28;20016;-82
2023/03/01 10:52:28;;;;;;;14.27;2.63;;;;;;;9.94;57.74;94257.31;5102628;28;20015;-83
2023/03/01 10:55:01;;;;;;;4.80;2.60;;;;;;;9.97;58.32;94259.38;5103130;28;20096;-82
2023/03/01 10:57:40;;;;;;;9.55;4.75;;;;;;;10.02;58.18;94259.28;5105830;28;20321;-82
2023/03/01 11:00:46;;;;;;;7.53;3.38;;;;;;;10.09;57.72;94264.19;5105801;28;20035;-82
2023/03/01 11:03:14;;;;;;;12.00;3.05;;;;;;;10.10;58.10;94263.88;5086067;28;20036;-79
2023/03/01 11:05:54;;;;;;;7.32;2.70;;;;;;;10.13;57.98;94265.94;5106822;28;20024;-82
2023/03/01 11:08:42;;;;;;;5.03;2.30;;;;;;;10.14;57.51;94262.19;5106957;28;20028;-81
2023/03/01 11:11:26;;;;;;;6.22;3.55;;;;;;;10.14;57.61;94270.19;5106908;28;20087;-81
2023/03/01 11:13:51;;;;;;;8.50;3.30;;;;;;;10.04;57.23;94273.06;5105429;28;20035;-81
2023/03/01 11:16:26;;;;;;;6.82;3.30;;;;;;;9.98;57.32;94269.72;5106471;28;20047;-81
2023/03/01 11:19:19;;;;;;;5.35;2.97;;;;;;;9.98;57.30;94263.63;5105166;28;20020;-82
2023/03/01 11:21:47;;;;;;;9.65;3.53;;;;;;;9.96;57.72;94277.22;5104912;28;20028;-81
2023/03/01 11:24:16;;;;;;;6.93;3.42;;;;;;;9.96;57.77;94266.56;5106251;28;20218;-81
2023/03/01 11:26:47;;;;;;;11.40;2.85;;;;;;;10.00;57.93;94272.09;5106461;28;20085;-81
2023/03/01 11:29:42;;;;;;;8.18;2.60;;;;;;;10.03;57.69;94266.16;5105117;28;20024;-81
2023/03/01 11:32:12;;;;;;;9.93;3.90;;;;;;;10.01;58.12;94273.66;5106390;28;20310;-81
2023/03/01 11:34:47;;;;;;;7.35;3.60;;;;;;;9.96;57.31;94265.78;5106058;28;20026;-81
2023/03/01 11:37:24;;;;;;;7.50;3.10;;;;;;;9.93;57.33;94261.06;5106365;28;20311;-82
2023/03/01 11:40:15;;;;;;;7.50;3.40;;;;;;;9.88;57.62;94253.19;5106138;28;20035;-81
2023/03/01 11:43:00;;;;;;;10.07;4.28;;;;;;;9.86;58.20;94250.03;5106169;28;20065;-81
2023/03/01 11:45:36;;;;;;;12.63;2.70;;;;;;;9.80;58.19;94247.47;5105846;28;20052;-81
2023/03/01 11:48:38;;;;;;;5.25;2.78;;;;;;;9.61;57.80;94244.94;5106107;28;20032;-81
2023/03/01 11:51:20;;;;;;;4.47;3.25;;;;;;;9.53;58.60;94237.63;5105857;28;20088;-81